Terminal Aerodrome Forecast
Issued by NWS

Home | Current Version | Previous Version | Text Only | Print | Product List | Glossary On
Versions: 1 2 3 4 5 6 7 8 9 10 11 12 13 14 15
000
FTAK31 PANC 291723
TAFADQ
TAF
PADQ 291723Z 2918/3018 05005KT P6SM SCT040
     FM300300 07007KT P6SM BKN035
     FM301500 03009KT P6SM OVC025=

USA.gov is the U.S. government's official web portal to all federal, state and local government web resources and services.